sensor_id;sensor_type;location;lat;lon;timestamp;temperature;humidity
14144;DHT22;7152;48.348;10.980;2022-10-16T00:01:35;13.60;99.90
14144;DHT22;7152;48.348;10.980;2022-10-16T00:04:01;13.50;99.90
14144;DHT22;7152;48.348;10.980;2022-10-16T00:06:28;13.50;99.90
14144;DHT22;7152;48.348;10.980;2022-10-16T00:08:54;13.50;99.90
14144;DHT22;7152;48.348;10.980;2022-10-16T00:11:22;13.40;99.90
14144;DHT22;7152;48.348;10.980;2022-10-16T00:13:50;13.40;99.90
14144;DHT22;7152;48.348;10.980;2022-10-16T00:16:17;13.40;99.90
14144;DHT22;7152;48.348;10.980;2022-10-16T00:18:44;13.40;99.90
14144;DHT22;7152;48.348;10.980;2022-10-16T00:21:17;13.40;99.90
14144;DHT22;7152;48.348;10.980;2022-10-16T00:23:43;13.50;99.90
14144;DHT22;7152;48.348;10.980;2022-10-16T00:26:12;13.50;99.90
14144;DHT22;7152;48.348;10.980;2022-10-16T00:28:39;13.50;99.90
14144;DHT22;7152;48.348;10.980;2022-10-16T00:31:06;13.50;99.90
14144;DHT22;7152;48.348;10.980;2022-10-16T00:33:33;13.60;99.90
14144;DHT22;7152;48.348;10.980;2022-10-16T00:36:00;13.60;99.90
14144;DHT22;7152;48.348;10.980;2022-10-16T00:38:26;13.60;99.90
14144;DHT22;7152;48.348;10.980;2022-10-16T00:40:51;13.60;99.90
14144;DHT22;7152;48.348;10.980;2022-10-16T00:46:03;13.70;99.90
14144;DHT22;7152;48.348;10.980;2022-10-16T00:48:29;13.70;99.90
14144;DHT22;7152;48.348;10.980;2022-10-16T00:50:56;13.70;99.90
14144;DHT22;7152;48.348;10.980;2022-10-16T00:53:24;13.60;99.90
14144;DHT22;7152;48.348;10.980;2022-10-16T00:55:50;13.60;99.90
14144;DHT22;7152;48.348;10.980;2022-10-16T00:58:16;13.60;99.90
14144;DHT22;7152;48.348;10.980;2022-10-16T01:00:42;13.60;99.90
14144;DHT22;7152;48.348;10.980;2022-10-16T01:03:29;13.50;99.90
14144;DHT22;7152;48.348;10.980;2022-10-16T01:08:34;13.50;99.90
14144;DHT22;7152;48.348;10.980;2022-10-16T01:11:22;13.50;99.90
14144;DHT22;7152;48.348;10.980;2022-10-16T01:13:54;13.50;99.90
14144;DHT22;7152;48.348;10.980;2022-10-16T01:16:43;13.50;99.90
14144;DHT22;7152;48.348;10.980;2022-10-16T01:19:25;13.40;99.90
14144;DHT22;7152;48.348;10.980;2022-10-16T01:21:58;13.40;99.90
14144;DHT22;7152;48.348;10.980;2022-10-16T01:24:33;13.40;99.90
14144;DHT22;7152;48.348;10.980;2022-10-16T01:27:18;13.40;99.90
14144;DHT22;7152;48.348;10.980;2022-10-16T01:35:14;13.50;99.90
14144;DHT22;7152;48.348;10.980;2022-10-16T01:38:04;13.50;99.90
14144;DHT22;7152;48.348;10.980;2022-10-16T01:40:34;13.50;99.90
14144;DHT22;7152;48.348;10.980;2022-10-16T01:43:06;13.40;99.90
14144;DHT22;7152;48.348;10.980;2022-10-16T01:45:34;13.50;99.90
14144;DHT22;7152;48.348;10.980;2022-10-16T01:48:02;13.50;99.90
14144;DHT22;7152;48.348;10.980;2022-10-16T01:50:32;13.40;99.90
14144;DHT22;7152;48.348;10.980;2022-10-16T01:53:01;13.40;99.90
14144;DHT22;7152;48.348;10.980;2022-10-16T01:55:30;13.40;99.90
14144;DHT22;7152;48.348;10.980;2022-10-16T01:57:59;13.30;99.90
14144;DHT22;7152;48.348;10.980;2022-10-16T02:00:26;13.20;99.90
14144;DHT22;7152;48.348;10.980;2022-10-16T02:02:53;13.20;99.90
14144;DHT22;7152;48.348;10.980;2022-10-16T02:08:08;13.20;99.90
14144;DHT22;7152;48.348;10.980;2022-10-16T02:10:35;13.10;99.90
14144;DHT22;7152;48.348;10.980;2022-10-16T02:13:19;13.20;99.90
14144;DHT22;7152;48.348;10.980;2022-10-16T02:15:47;13.10;99.90
14144;DHT22;7152;48.348;10.980;2022-10-16T02:18:13;13.20;99.90
14144;DHT22;7152;48.348;10.980;2022-10-16T02:23:19;13.20;99.90
14144;DHT22;7152;48.348;10.980;2022-10-16T02:25:47;13.20;99.90
14144;DHT22;7152;48.348;10.980;2022-10-16T02:28:21;13.10;99.90
14144;DHT22;7152;48.348;10.980;2022-10-16T02:30:51;13.10;99.90
14144;DHT22;7152;48.348;10.980;2022-10-16T02:33:21;13.10;99.90
14144;DHT22;7152;48.348;10.980;2022-10-16T02:35:49;13.10;99.90
14144;DHT22;7152;48.348;10.980;2022-10-16T02:38:17;13.10;99.90
14144;DHT22;7152;48.348;10.980;2022-10-16T02:40:43;13.00;99.90
14144;DHT22;7152;48.348;10.980;2022-10-16T02:43:09;13.10;99.90
14144;DHT22;7152;48.348;10.980;2022-10-16T02:45:36;13.10;99.90
14144;DHT22;7152;48.348;10.980;2022-10-16T02:48:02;13.10;99.90
14144;DHT22;7152;48.348;10.980;2022-10-16T02:50:27;13.10;99.90
14144;DHT22;7152;48.348;10.980;2022-10-16T02:52:53;13.10;99.90
14144;DHT22;7152;48.348;10.980;2022-10-16T02:55:19;13.10;99.90
14144;DHT22;7152;48.348;10.980;2022-10-16T02:57:44;13.10;99.90
14144;DHT22;7152;48.348;10.980;2022-10-16T03:00:13;13.10;99.90
14144;DHT22;7152;48.348;10.980;2022-10-16T03:02:39;13.10;99.90
14144;DHT22;7152;48.348;10.980;2022-10-16T03:05:05;13.10;99.90
14144;DHT22;7152;48.348;10.980;2022-10-16T03:07:30;13.10;99.90
14144;DHT22;7152;48.348;10.980;2022-10-16T03:09:56;13.10;99.90
14144;DHT22;7152;48.348;10.980;2022-10-16T03:12:22;13.10;99.90
14144;DHT22;7152;48.348;10.980;2022-10-16T03:14:48;13.10;99.90
14144;DHT22;7152;48.348;10.980;2022-10-16T03:17:14;13.20;99.90
14144;DHT22;7152;48.348;10.980;2022-10-16T03:19:42;13.20;99.90
14144;DHT22;7152;48.348;10.980;2022-10-16T03:22:07;13.20;99.90
14144;DHT22;7152;48.348;10.980;2022-10-16T03:24:33;13.20;99.90
14144;DHT22;7152;48.348;10.980;2022-10-16T03:26:59;13.20;99.90
14144;DHT22;7152;48.348;10.980;2022-10-16T03:29:25;13.20;99.90
14144;DHT22;7152;48.348;10.980;2022-10-16T03:31:51;13.20;99.90
14144;DHT22;7152;48.348;10.980;2022-10-16T03:34:17;13.20;99.90
14144;DHT22;7152;48.348;10.980;2022-10-16T03:36:42;13.20;99.90
14144;DHT22;7152;48.348;10.980;2022-10-16T03:39:08;13.20;99.90
14144;DHT22;7152;48.348;10.980;2022-10-16T03:41:33;13.20;99.90
14144;DHT22;7152;48.348;10.980;2022-10-16T03:43:59;13.20;99.90
14144;DHT22;7152;48.348;10.980;2022-10-16T03:46:25;13.20;99.90
14144;DHT22;7152;48.348;10.980;2022-10-16T03:48:50;13.20;99.90
14144;DHT22;7152;48.348;10.980;2022-10-16T03:51:16;13.20;99.90
14144;DHT22;7152;48.348;10.980;2022-10-16T03:53:41;13.20;99.90
14144;DHT22;7152;48.348;10.980;2022-10-16T03:56:07;13.20;99.90
14144;DHT22;7152;48.348;10.980;2022-10-16T03:58:33;13.30;99.90
14144;DHT22;7152;48.348;10.980;2022-10-16T04:00:58;13.30;99.90
14144;DHT22;7152;48.348;10.980;2022-10-16T04:03:24;13.30;99.90
14144;DHT22;7152;48.348;10.980;2022-10-16T04:05:49;13.30;99.90
14144;DHT22;7152;48.348;10.980;2022-10-16T04:08:15;13.30;99.90
14144;DHT22;7152;48.348;10.980;2022-10-16T04:10:43;13.30;99.90
14144;DHT22;7152;48.348;10.980;2022-10-16T04:13:09;13.30;99.90
14144;DHT22;7152;48.348;10.980;2022-10-16T04:15:34;13.30;99.90
14144;DHT22;7152;48.348;10.980;2022-10-16T04:18:00;13.30;99.90
14144;DHT22;7152;48.348;10.980;2022-10-16T04:20:26;13.40;99.90
14144;DHT22;7152;48.348;10.980;2022-10-16T04:22:52;13.30;99.90
14144;DHT22;7152;48.348;10.980;2022-10-16T04:25:17;13.40;99.90
14144;DHT22;7152;48.348;10.980;2022-10-16T04:27:43;13.40;99.90
14144;DHT22;7152;48.348;10.980;2022-10-16T04:30:09;13.40;99.90
14144;DHT22;7152;48.348;10.980;2022-10-16T04:32:34;13.40;99.90
14144;DHT22;7152;48.348;10.980;2022-10-16T04:35:00;13.40;99.90
14144;DHT22;7152;48.348;10.980;2022-10-16T04:37:26;13.40;99.90
14144;DHT22;7152;48.348;10.980;2022-10-16T04:39:53;13.40;99.90
14144;DHT22;7152;48.348;10.980;2022-10-16T04:42:20;13.30;99.90
14144;DHT22;7152;48.348;10.980;2022-10-16T04:44:45;13.30;99.90
14144;DHT22;7152;48.348;10.980;2022-10-16T04:47:11;13.30;99.90
14144;DHT22;7152;48.348;10.980;2022-10-16T04:49:37;13.20;99.90
14144;DHT22;7152;48.348;10.980;2022-10-16T04:52:03;13.20;99.90
14144;DHT22;7152;48.348;10.980;2022-10-16T04:54:29;13.10;99.90
14144;DHT22;7152;48.348;10.980;2022-10-16T04:56:54;13.00;99.90
14144;DHT22;7152;48.348;10.980;2022-10-16T04:59:21;13.00;99.90
14144;DHT22;7152;48.348;10.980;2022-10-16T05:01:47;12.90;99.90
14144;DHT22;7152;48.348;10.980;2022-10-16T05:04:13;12.80;99.90
14144;DHT22;7152;48.348;10.980;2022-10-16T05:06:40;12.70;99.90
14144;DHT22;7152;48.348;10.980;2022-10-16T05:09:06;12.70;99.90
14144;DHT22;7152;48.348;10.980;2022-10-16T05:11:32;12.60;99.90
14144;DHT22;7152;48.348;10.980;2022-10-16T05:13:58;12.60;99.90
14144;DHT22;7152;48.348;10.980;2022-10-16T05:16:23;12.60;99.90
14144;DHT22;7152;48.348;10.980;2022-10-16T05:18:50;12.50;99.90
14144;DHT22;7152;48.348;10.980;2022-10-16T05:21:16;12.40;99.90
14144;DHT22;7152;48.348;10.980;2022-10-16T05:23:41;12.40;99.90
14144;DHT22;7152;48.348;10.980;2022-10-16T05:26:08;12.40;99.90
14144;DHT22;7152;48.348;10.980;2022-10-16T05:28:34;12.40;99.90
14144;DHT22;7152;48.348;10.980;2022-10-16T05:31:07;12.40;99.90
14144;DHT22;7152;48.348;10.980;2022-10-16T05:33:33;12.50;99.90
14144;DHT22;7152;48.348;10.980;2022-10-16T05:36:06;12.50;99.90
14144;DHT22;7152;48.348;10.980;2022-10-16T05:38:33;12.50;99.90
14144;DHT22;7152;48.348;10.980;2022-10-16T05:40:59;12.50;99.90
14144;DHT22;7152;48.348;10.980;2022-10-16T05:43:27;12.50;99.90
14144;DHT22;7152;48.348;10.980;2022-10-16T05:45:54;12.60;99.90
14144;DHT22;7152;48.348;10.980;2022-10-16T05:48:20;12.60;99.90
14144;DHT22;7152;48.348;10.980;2022-10-16T05:50:46;12.60;99.90
14144;DHT22;7152;48.348;10.980;2022-10-16T05:53:11;12.60;99.90
14144;DHT22;7152;48.348;10.980;2022-10-16T05:55:37;12.60;99.90
14144;DHT22;7152;48.348;10.980;2022-10-16T05:58:02;12.60;99.90
14144;DHT22;7152;48.348;10.980;2022-10-16T06:00:28;12.60;99.90
14144;DHT22;7152;48.348;10.980;2022-10-16T06:02:54;12.60;99.90
14144;DHT22;7152;48.348;10.980;2022-10-16T06:05:19;12.50;99.90
14144;DHT22;7152;48.348;10.980;2022-10-16T06:07:45;12.50;99.90
14144;DHT22;7152;48.348;10.980;2022-10-16T06:10:10;12.50;99.90
14144;DHT22;7152;48.348;10.980;2022-10-16T06:12:36;12.50;99.90
14144;DHT22;7152;48.348;10.980;2022-10-16T06:15:02;12.40;99.90
14144;DHT22;7152;48.348;10.980;2022-10-16T06:17:28;12.50;99.90
14144;DHT22;7152;48.348;10.980;2022-10-16T06:19:53;12.50;99.90
14144;DHT22;7152;48.348;10.980;2022-10-16T06:22:19;12.60;99.90
14144;DHT22;7152;48.348;10.980;2022-10-16T06:24:45;12.60;99.90
14144;DHT22;7152;48.348;10.980;2022-10-16T06:27:11;12.70;99.90
14144;DHT22;7152;48.348;10.980;2022-10-16T06:29:37;12.70;99.90
14144;DHT22;7152;48.348;10.980;2022-10-16T06:32:03;12.80;99.90
14144;DHT22;7152;48.348;10.980;2022-10-16T06:34:28;12.90;99.90
14144;DHT22;7152;48.348;10.980;2022-10-16T06:36:54;12.90;99.90
14144;DHT22;7152;48.348;10.980;2022-10-16T06:39:20;13.00;99.90
14144;DHT22;7152;48.348;10.980;2022-10-16T06:41:46;13.10;99.90
14144;DHT22;7152;48.348;10.980;2022-10-16T06:44:11;13.20;99.90
14144;DHT22;7152;48.348;10.980;2022-10-16T06:46:37;13.30;99.90
14144;DHT22;7152;48.348;10.980;2022-10-16T06:49:03;13.40;99.90
14144;DHT22;7152;48.348;10.980;2022-10-16T06:51:28;13.40;99.90
14144;DHT22;7152;48.348;10.980;2022-10-16T06:53:55;13.50;99.90
14144;DHT22;7152;48.348;10.980;2022-10-16T06:56:26;13.50;99.90
14144;DHT22;7152;48.348;10.980;2022-10-16T06:58:52;13.50;99.90
14144;DHT22;7152;48.348;10.980;2022-10-16T07:01:20;13.50;99.90
14144;DHT22;7152;48.348;10.980;2022-10-16T07:03:47;13.60;99.90
14144;DHT22;7152;48.348;10.980;2022-10-16T07:06:15;13.60;99.90
14144;DHT22;7152;48.348;10.980;2022-10-16T07:08:44;13.60;99.90
14144;DHT22;7152;48.348;10.980;2022-10-16T07:11:15;13.60;99.90
14144;DHT22;7152;48.348;10.980;2022-10-16T07:13:42;13.60;99.90
14144;DHT22;7152;48.348;10.980;2022-10-16T07:16:11;13.70;99.90
14144;DHT22;7152;48.348;10.980;2022-10-16T07:18:37;13.70;99.90
14144;DHT22;7152;48.348;10.980;2022-10-16T07:21:09;13.80;99.90
14144;DHT22;7152;48.348;10.980;2022-10-16T07:23:36;13.90;99.90
14144;DHT22;7152;48.348;10.980;2022-10-16T07:26:03;14.00;99.90
14144;DHT22;7152;48.348;10.980;2022-10-16T07:28:29;14.10;99.90
14144;DHT22;7152;48.348;10.980;2022-10-16T07:30:55;14.10;99.90
14144;DHT22;7152;48.348;10.980;2022-10-16T07:33:21;14.20;99.90
14144;DHT22;7152;48.348;10.980;2022-10-16T07:35:51;14.20;99.90
14144;DHT22;7152;48.348;10.980;2022-10-16T07:38:17;14.30;99.90
14144;DHT22;7152;48.348;10.980;2022-10-16T07:40:43;14.40;99.90
14144;DHT22;7152;48.348;10.980;2022-10-16T07:43:08;14.40;99.90
14144;DHT22;7152;48.348;10.980;2022-10-16T07:45:34;14.50;99.90
14144;DHT22;7152;48.348;10.980;2022-10-16T07:48:00;14.60;99.90
14144;DHT22;7152;48.348;10.980;2022-10-16T07:50:25;14.60;99.90
14144;DHT22;7152;48.348;10.980;2022-10-16T07:52:51;14.70;99.90
14144;DHT22;7152;48.348;10.980;2022-10-16T07:55:17;14.80;99.90
14144;DHT22;7152;48.348;10.980;2022-10-16T07:57:43;14.90;99.90
14144;DHT22;7152;48.348;10.980;2022-10-16T08:00:09;15.00;99.90
14144;DHT22;7152;48.348;10.980;2022-10-16T08:02:41;15.10;99.90
14144;DHT22;7152;48.348;10.980;2022-10-16T08:05:07;15.20;99.90
14144;DHT22;7152;48.348;10.980;2022-10-16T08:07:33;15.30;99.90
14144;DHT22;7152;48.348;10.980;2022-10-16T08:09:59;15.40;99.90
14144;DHT22;7152;48.348;10.980;2022-10-16T08:12:25;15.50;99.90
14144;DHT22;7152;48.348;10.980;2022-10-16T08:14:51;15.60;99.90
14144;DHT22;7152;48.348;10.980;2022-10-16T08:17:17;15.70;99.90
14144;DHT22;7152;48.348;10.980;2022-10-16T08:19:46;15.90;99.90
14144;DHT22;7152;48.348;10.980;2022-10-16T08:22:13;16.00;99.90
14144;DHT22;7152;48.348;10.980;2022-10-16T08:24:39;16.20;99.90
14144;DHT22;7152;48.348;10.980;2022-10-16T08:27:05;16.40;99.90
14144;DHT22;7152;48.348;10.980;2022-10-16T08:29:31;16.60;99.90
14144;DHT22;7152;48.348;10.980;2022-10-16T08:31:56;16.70;99.90
14144;DHT22;7152;48.348;10.980;2022-10-16T08:34:22;16.70;99.90
14144;DHT22;7152;48.348;10.980;2022-10-16T08:36:47;16.80;99.90
14144;DHT22;7152;48.348;10.980;2022-10-16T08:39:13;16.70;99.90
14144;DHT22;7152;48.348;10.980;2022-10-16T08:42:16;16.70;99.90
14144;DHT22;7152;48.348;10.980;2022-10-16T08:45:14;16.90;99.90
14144;DHT22;7152;48.348;10.980;2022-10-16T08:50:37;17.00;99.90
14144;DHT22;7152;48.348;10.980;2022-10-16T08:53:04;17.10;99.90
14144;DHT22;7152;48.348;10.980;2022-10-16T08:55:43;17.20;99.90
14144;DHT22;7152;48.348;10.980;2022-10-16T08:58:15;17.30;99.90
14144;DHT22;7152;48.348;10.980;2022-10-16T09:00:43;17.40;99.90
14144;DHT22;7152;48.348;10.980;2022-10-16T09:12:10;18.30;99.90
14144;DHT22;7152;48.348;10.980;2022-10-16T09:18:05;18.70;99.90
14144;DHT22;7152;48.348;10.980;2022-10-16T09:23:26;18.90;99.90
14144;DHT22;7152;48.348;10.980;2022-10-16T09:25:53;18.90;99.90
14144;DHT22;7152;48.348;10.980;2022-10-16T09:28:19;19.00;99.90
14144;DHT22;7152;48.348;10.980;2022-10-16T09:30:46;19.00;99.90
14144;DHT22;7152;48.348;10.980;2022-10-16T09:33:14;19.10;99.90
14144;DHT22;7152;48.348;10.980;2022-10-16T09:35:48;19.20;99.90
14144;DHT22;7152;48.348;10.980;2022-10-16T09:40:47;19.30;99.90
14144;DHT22;7152;48.348;10.980;2022-10-16T09:48:21;19.70;99.90
14144;DHT22;7152;48.348;10.980;2022-10-16T09:51:01;19.80;99.90
14144;DHT22;7152;48.348;10.980;2022-10-16T09:54:01;19.90;99.90
14144;DHT22;7152;48.348;10.980;2022-10-16T09:56:34;20.10;99.90
14144;DHT22;7152;48.348;10.980;2022-10-16T09:59:21;20.20;99.90
14144;DHT22;7152;48.348;10.980;2022-10-16T10:01:52;20.30;99.90
14144;DHT22;7152;48.348;10.980;2022-10-16T10:04:23;20.40;99.90
14144;DHT22;7152;48.348;10.980;2022-10-16T10:06:55;20.50;99.90
14144;DHT22;7152;48.348;10.980;2022-10-16T10:09:38;20.60;99.90
14144;DHT22;7152;48.348;10.980;2022-10-16T10:12:34;20.80;99.90
14144;DHT22;7152;48.348;10.980;2022-10-16T10:15:15;21.00;99.90
14144;DHT22;7152;48.348;10.980;2022-10-16T10:17:56;21.10;99.90
14144;DHT22;7152;48.348;10.980;2022-10-16T10:22:54;21.40;99.90
14144;DHT22;7152;48.348;10.980;2022-10-16T10:55:54;22.40;99.90
14144;DHT22;7152;48.348;10.980;2022-10-16T11:03:31;22.50;99.90
14144;DHT22;7152;48.348;10.980;2022-10-16T11:06:10;22.50;99.90
14144;DHT22;7152;48.348;10.980;2022-10-16T11:11:44;22.70;99.90
14144;DHT22;7152;48.348;10.980;2022-10-16T11:14:20;22.80;99.90
14144;DHT22;7152;48.348;10.980;2022-10-16T11:17:08;23.00;99.90
14144;DHT22;7152;48.348;10.980;2022-10-16T11:19:41;23.10;99.90
14144;DHT22;7152;48.348;10.980;2022-10-16T11:25:01;23.20;99.90
14144;DHT22;7152;48.348;10.980;2022-10-16T11:30:08;23.40;99.90
14144;DHT22;7152;48.348;10.980;2022-10-16T11:35:38;24.00;99.90
14144;DHT22;7152;48.348;10.980;2022-10-16T11:38:13;24.20;99.90
14144;DHT22;7152;48.348;10.980;2022-10-16T11:40:41;24.30;99.90
14144;DHT22;7152;48.348;10.980;2022-10-16T11:43:21;24.60;99.90
14144;DHT22;7152;48.348;10.980;2022-10-16T11:45:50;24.80;99.90
14144;DHT22;7152;48.348;10.980;2022-10-16T11:48:38;25.00;99.90
14144;DHT22;7152;48.348;10.980;2022-10-16T11:51:39;25.30;99.90
14144;DHT22;7152;48.348;10.980;2022-10-16T11:54:26;25.20;99.90
14144;DHT22;7152;48.348;10.980;2022-10-16T11:56:57;25.00;99.90
14144;DHT22;7152;48.348;10.980;2022-10-16T11:59:40;24.90;99.90
14144;DHT22;7152;48.348;10.980;2022-10-16T12:02:48;24.90;99.90
14144;DHT22;7152;48.348;10.980;2022-10-16T12:05:32;24.90;99.90
14144;DHT22;7152;48.348;10.980;2022-10-16T12:08:12;24.80;99.90
14144;DHT22;7152;48.348;10.980;2022-10-16T12:10:40;24.90;99.90
14144;DHT22;7152;48.348;10.980;2022-10-16T12:18:39;25.20;99.90
14144;DHT22;7152;48.348;10.980;2022-10-16T12:21:05;25.00;99.90
14144;DHT22;7152;48.348;10.980;2022-10-16T12:23:53;24.90;99.90
14144;DHT22;7152;48.348;10.980;2022-10-16T12:26:31;25.10;99.90
14144;DHT22;7152;48.348;10.980;2022-10-16T12:31:46;25.50;99.90
14144;DHT22;7152;48.348;10.980;2022-10-16T12:34:39;25.70;99.90
14144;DHT22;7152;48.348;10.980;2022-10-16T12:37:26;26.00;99.90
14144;DHT22;7152;48.348;10.980;2022-10-16T12:39:54;26.20;99.90
14144;DHT22;7152;48.348;10.980;2022-10-16T12:44:52;26.60;99.90
14144;DHT22;7152;48.348;10.980;2022-10-16T12:47:46;26.70;99.90
14144;DHT22;7152;48.348;10.980;2022-10-16T12:50:36;26.70;99.90
14144;DHT22;7152;48.348;10.980;2022-10-16T12:53:16;26.40;99.90
14144;DHT22;7152;48.348;10.980;2022-10-16T13:12:08;25.90;99.90
14144;DHT22;7152;48.348;10.980;2022-10-16T13:14:50;26.00;99.90
14144;DHT22;7152;48.348;10.980;2022-10-16T13:17:22;26.00;99.90
14144;DHT22;7152;48.348;10.980;2022-10-16T13:28:08;25.90;99.90
14144;DHT22;7152;48.348;10.980;2022-10-16T13:30:50;25.70;99.90
14144;DHT22;7152;48.348;10.980;2022-10-16T13:33:40;25.50;99.90
14144;DHT22;7152;48.348;10.980;2022-10-16T13:36:22;25.30;99.90
14144;DHT22;7152;48.348;10.980;2022-10-16T13:38:57;25.10;99.90
14144;DHT22;7152;48.348;10.980;2022-10-16T13:41:25;24.90;99.90
14144;DHT22;7152;48.348;10.980;2022-10-16T13:43:52;24.80;99.90
14144;DHT22;7152;48.348;10.980;2022-10-16T13:46:23;24.70;99.90
14144;DHT22;7152;48.348;10.980;2022-10-16T13:49:24;24.60;99.90
14144;DHT22;7152;48.348;10.980;2022-10-16T13:51:58;24.60;99.90
14144;DHT22;7152;48.348;10.980;2022-10-16T13:54:25;24.50;99.90
14144;DHT22;7152;48.348;10.980;2022-10-16T13:56:52;24.50;99.90
14144;DHT22;7152;48.348;10.980;2022-10-16T13:59:33;24.40;99.90
14144;DHT22;7152;48.348;10.980;2022-10-16T14:02:15;24.30;99.90
14144;DHT22;7152;48.348;10.980;2022-10-16T14:04:43;24.20;99.90
14144;DHT22;7152;48.348;10.980;2022-10-16T14:07:24;24.00;99.90
14144;DHT22;7152;48.348;10.980;2022-10-16T14:09:51;23.80;99.90
14144;DHT22;7152;48.348;10.980;2022-10-16T14:12:18;23.50;99.90
14144;DHT22;7152;48.348;10.980;2022-10-16T14:14:48;23.40;99.90
14144;DHT22;7152;48.348;10.980;2022-10-16T14:17:30;23.30;99.90
14144;DHT22;7152;48.348;10.980;2022-10-16T14:19:59;23.10;99.90
14144;DHT22;7152;48.348;10.980;2022-10-16T14:22:42;23.00;99.90
14144;DHT22;7152;48.348;10.980;2022-10-16T14:25:21;22.90;99.90
14144;DHT22;7152;48.348;10.980;2022-10-16T14:28:04;22.70;99.90
14144;DHT22;7152;48.348;10.980;2022-10-16T14:30:32;22.60;99.90
14144;DHT22;7152;48.348;10.980;2022-10-16T14:35:30;22.50;99.90
14144;DHT22;7152;48.348;10.980;2022-10-16T14:37:57;22.30;99.90
14144;DHT22;7152;48.348;10.980;2022-10-16T14:40:26;22.20;99.90
14144;DHT22;7152;48.348;10.980;2022-10-16T14:42:53;22.20;99.90
14144;DHT22;7152;48.348;10.980;2022-10-16T14:45:26;22.10;99.90
14144;DHT22;7152;48.348;10.980;2022-10-16T14:47:55;22.00;99.90
14144;DHT22;7152;48.348;10.980;2022-10-16T14:50:22;21.90;99.90
14144;DHT22;7152;48.348;10.980;2022-10-16T14:52:48;21.80;99.90
14144;DHT22;7152;48.348;10.980;2022-10-16T14:55:13;21.70;99.90
14144;DHT22;7152;48.348;10.980;2022-10-16T14:57:39;21.60;99.90
14144;DHT22;7152;48.348;10.980;2022-10-16T15:00:17;21.50;99.90
14144;DHT22;7152;48.348;10.980;2022-10-16T15:02:44;21.50;99.90
14144;DHT22;7152;48.348;10.980;2022-10-16T15:05:24;21.40;99.90
14144;DHT22;7152;48.348;10.980;2022-10-16T15:07:52;21.30;99.90
14144;DHT22;7152;48.348;10.980;2022-10-16T15:10:20;21.30;99.90
14144;DHT22;7152;48.348;10.980;2022-10-16T15:12:47;21.20;99.90
14144;DHT22;7152;48.348;10.980;2022-10-16T15:17:59;21.10;99.90
14144;DHT22;7152;48.348;10.980;2022-10-16T15:20:28;21.00;99.90
14144;DHT22;7152;48.348;10.980;2022-10-16T15:22:54;20.90;99.90
14144;DHT22;7152;48.348;10.980;2022-10-16T15:27:51;20.70;99.90
14144;DHT22;7152;48.348;10.980;2022-10-16T15:30:16;20.60;99.90
14144;DHT22;7152;48.348;10.980;2022-10-16T15:32:42;20.50;99.90
14144;DHT22;7152;48.348;10.980;2022-10-16T15:35:09;20.40;99.90
14144;DHT22;7152;48.348;10.980;2022-10-16T15:37:34;20.30;99.90
14144;DHT22;7152;48.348;10.980;2022-10-16T15:40:00;20.20;99.90
14144;DHT22;7152;48.348;10.980;2022-10-16T15:42:26;20.20;99.90
14144;DHT22;7152;48.348;10.980;2022-10-16T15:44:51;20.10;99.90
14144;DHT22;7152;48.348;10.980;2022-10-16T15:47:17;20.00;99.90
14144;DHT22;7152;48.348;10.980;2022-10-16T15:49:42;19.90;99.90
14144;DHT22;7152;48.348;10.980;2022-10-16T15:52:08;19.80;99.90
14144;DHT22;7152;48.348;10.980;2022-10-16T15:54:34;19.70;99.90
14144;DHT22;7152;48.348;10.980;2022-10-16T15:56:59;19.60;99.90
14144;DHT22;7152;48.348;10.980;2022-10-16T15:59:25;19.50;99.90
14144;DHT22;7152;48.348;10.980;2022-10-16T16:01:50;19.50;99.90
14144;DHT22;7152;48.348;10.980;2022-10-16T16:04:16;19.40;99.90
14144;DHT22;7152;48.348;10.980;2022-10-16T16:06:42;19.30;99.90
14144;DHT22;7152;48.348;10.980;2022-10-16T16:09:11;19.20;99.90
14144;DHT22;7152;48.348;10.980;2022-10-16T16:11:37;19.10;99.90
14144;DHT22;7152;48.348;10.980;2022-10-16T16:14:05;19.00;99.90
14144;DHT22;7152;48.348;10.980;2022-10-16T16:16:30;18.80;99.90
14144;DHT22;7152;48.348;10.980;2022-10-16T16:18:58;18.70;99.90
14144;DHT22;7152;48.348;10.980;2022-10-16T16:21:24;18.60;99.90
14144;DHT22;7152;48.348;10.980;2022-10-16T16:23:50;18.50;99.90
14144;DHT22;7152;48.348;10.980;2022-10-16T16:26:23;18.40;99.90
14144;DHT22;7152;48.348;10.980;2022-10-16T16:28:53;18.30;99.90
14144;DHT22;7152;48.348;10.980;2022-10-16T16:31:20;18.20;99.90
14144;DHT22;7152;48.348;10.980;2022-10-16T16:33:48;18.10;99.90
14144;DHT22;7152;48.348;10.980;2022-10-16T16:36:17;18.00;99.90
14144;DHT22;7152;48.348;10.980;2022-10-16T16:38:43;17.90;99.90
14144;DHT22;7152;48.348;10.980;2022-10-16T16:41:22;17.80;99.90
14144;DHT22;7152;48.348;10.980;2022-10-16T16:43:48;17.80;99.90
14144;DHT22;7152;48.348;10.980;2022-10-16T16:46:14;17.80;99.90
14144;DHT22;7152;48.348;10.980;2022-10-16T16:48:40;17.70;99.90
14144;DHT22;7152;48.348;10.980;2022-10-16T16:51:12;17.70;99.90
14144;DHT22;7152;48.348;10.980;2022-10-16T16:53:48;17.70;99.90
14144;DHT22;7152;48.348;10.980;2022-10-16T16:56:14;17.60;99.90
14144;DHT22;7152;48.348;10.980;2022-10-16T16:58:39;17.60;99.90
14144;DHT22;7152;48.348;10.980;2022-10-16T17:01:05;17.60;99.90
14144;DHT22;7152;48.348;10.980;2022-10-16T17:03:33;17.50;99.90
14144;DHT22;7152;48.348;10.980;2022-10-16T17:06:05;17.50;99.90
14144;DHT22;7152;48.348;10.980;2022-10-16T17:08:31;17.40;99.90
14144;DHT22;7152;48.348;10.980;2022-10-16T17:10:57;17.40;99.90
14144;DHT22;7152;48.348;10.980;2022-10-16T17:13:28;17.30;99.90
14144;DHT22;7152;48.348;10.980;2022-10-16T17:15:54;17.30;99.90
14144;DHT22;7152;48.348;10.980;2022-10-16T17:18:22;17.20;99.90
14144;DHT22;7152;48.348;10.980;2022-10-16T17:20:47;17.20;99.90
14144;DHT22;7152;48.348;10.980;2022-10-16T17:23:15;17.20;99.90
14144;DHT22;7152;48.348;10.980;2022-10-16T17:25:41;17.20;99.90
14144;DHT22;7152;48.348;10.980;2022-10-16T17:28:09;17.30;99.90
14144;DHT22;7152;48.348;10.980;2022-10-16T17:30:39;17.30;99.90
14144;DHT22;7152;48.348;10.980;2022-10-16T17:33:06;17.20;99.90
14144;DHT22;7152;48.348;10.980;2022-10-16T17:35:43;17.20;99.90
14144;DHT22;7152;48.348;10.980;2022-10-16T17:38:10;17.20;99.90
14144;DHT22;7152;48.348;10.980;2022-10-16T17:40:36;17.10;99.90
14144;DHT22;7152;48.348;10.980;2022-10-16T17:43:02;17.10;99.90
14144;DHT22;7152;48.348;10.980;2022-10-16T17:45:28;17.00;99.90
14144;DHT22;7152;48.348;10.980;2022-10-16T17:47:54;17.00;99.90
14144;DHT22;7152;48.348;10.980;2022-10-16T17:50:20;17.00;99.90
14144;DHT22;7152;48.348;10.980;2022-10-16T17:52:46;16.90;99.90
14144;DHT22;7152;48.348;10.980;2022-10-16T17:55:11;16.90;99.90
14144;DHT22;7152;48.348;10.980;2022-10-16T17:57:37;16.80;99.90
14144;DHT22;7152;48.348;10.980;2022-10-16T18:00:04;16.80;99.90